Bayard, Ohio
Current Conditions -  °F | °C
As of 4:51 AM on Monday 26 Jan 2015 (Local Time) from KCAK Reporting Station
Light Snow Light Snow  
Wind Chill:   Ceiling: 2800
Heat Index: 20°   Visibility: 1mi
Dew Point: 15°   Wind: 14mph
Humidity: 81%   Direction: 20°NNE
Pressure: 29.74"   Gusts: NA
Location:  40.7427°N, 81.0929°W
Report Text: KCAK 260951Z 02012KT 1SM R23/P6000FT -SN OVC028 M07/M09 A2974 RMK AO2 SFC VIS 1 1/2 SLP087 P0002 T10671094 $
Loading
Personal Weather Stations






























Interactive Weather Map New forecast layout! Learn more

10-Day Weather Forecast

Advertisements
Track Severe Weather on mobile